Time;durP1;ratioP1;P1;durP2;ratioP2;P2;SDS_P1;SDS_P2;PMS_P1;PMS_P2;Temp;Humidity;BMP_temperature;BMP_pressure;BME280_temperature;BME280_humidity;BME280_pressure;Samples;Min_cycle;Max_cycle;Signal;HPM_P1;HPM_P2
2021/01/16 00:01:08;;;;;;;4.40;2.72;;;8.40;88.00;;;;;;5007553;28;20574;-49
2021/01/16 00:03:36;;;;;;;5.45;2.95;;;8.50;88.00;;;;;;5015347;28;20503;-50
2021/01/16 00:06:03;;;;;;;3.42;2.83;;;8.50;88.30;;;;;;5024339;28;20065;-48
2021/01/16 00:08:33;;;;;;;3.35;2.58;;;8.50;88.20;;;;;;4998300;28;20124;-49
2021/01/16 00:11:01;;;;;;;5.10;2.95;;;8.50;88.60;;;;;;5007127;28;20050;-48
2021/01/16 00:13:33;;;;;;;6.35;2.83;;;8.50;88.80;;;;;;4981771;28;20050;-46
2021/01/16 00:16:03;;;;;;;5.30;3.05;;;8.40;88.70;;;;;;4979938;28;20381;-46
2021/01/16 00:18:31;;;;;;;5.28;2.55;;;8.40;88.90;;;;;;4965517;28;20141;-47
2021/01/16 00:21:02;;;;;;;5.28;2.90;;;8.40;89.00;;;;;;4988809;28;20183;-46
2021/01/16 00:23:29;;;;;;;4.32;3.03;;;8.40;89.20;;;;;;4998731;28;20061;-45
2021/01/16 00:25:57;;;;;;;4.30;2.90;;;8.40;89.30;;;;;;4988426;28;20562;-45
2021/01/16 00:28:30;;;;;;;4.25;2.88;;;8.30;89.70;;;;;;4963008;28;20093;-48
2021/01/16 00:31:06;;;;;;;5.03;3.42;;;8.30;89.70;;;;;;5021216;28;20399;-46
2021/01/16 00:33:34;;;;;;;;;;;8.30;90.00;;;;;;4998522;28;20407;-45
2021/01/16 00:36:04;;;;;;;7.10;3.45;;;8.30;90.20;;;;;;5006874;28;19922;-52
2021/01/16 00:38:38;;;;;;;7.38;3.47;;;8.30;90.40;;;;;;5002878;28;20073;-51
2021/01/16 00:41:06;;;;;;;5.45;3.25;;;8.20;90.40;;;;;;5027258;28;20095;-50
2021/01/16 00:43:35;;;;;;;6.43;3.92;;;8.20;90.50;;;;;;5001718;28;20177;-46
2021/01/16 00:46:03;;;;;;;6.70;3.90;;;8.20;90.40;;;;;;4988787;28;20084;-47
2021/01/16 00:48:30;;;;;;;6.57;3.50;;;8.20;90.50;;;;;;5024050;28;20069;-50
2021/01/16 00:51:00;;;;;;;4.85;3.45;;;8.20;90.80;;;;;;5021494;28;20071;-46
2021/01/16 00:53:38;;;;;;;5.50;3.15;;;8.10;90.90;;;;;;4999323;28;20054;-45
2021/01/16 00:56:11;;;;;;;9.85;3.85;;;8.10;91.00;;;;;;4988721;28;20050;-52
2021/01/16 00:58:54;;;;;;;6.43;3.47;;;8.10;91.20;;;;;;4968294;28;20049;-46
2021/01/16 01:01:41;;;;;;;5.93;3.90;;;8.10;91.20;;;;;;4990439;28;20046;-50
2021/01/16 01:04:09;;;;;;;7.07;3.80;;;8.10;91.40;;;;;;4969268;28;20095;-47
2021/01/16 01:06:36;;;;;;;5.22;3.95;;;8.00;91.60;;;;;;4990605;28;20049;-49
2021/01/16 01:09:04;;;;;;;5.57;3.38;;;8.00;91.90;;;;;;5011559;28;20550;-51
2021/01/16 01:11:31;;;;;;;6.13;4.20;;;8.00;91.90;;;;;;5004769;28;20058;-47
2021/01/16 01:13:58;;;;;;;6.55;4.00;;;8.10;91.90;;;;;;4998589;28;20042;-47
2021/01/16 01:16:28;;;;;;;7.05;4.15;;;8.10;92.10;;;;;;5006889;28;20042;-50
2021/01/16 01:18:58;;;;;;;5.68;3.58;;;8.00;92.30;;;;;;5012829;28;20490;-46
2021/01/16 01:21:25;;;;;;;7.18;3.80;;;8.00;92.40;;;;;;5004910;28;20108;-48
2021/01/16 01:23:52;;;;;;;4.57;3.58;;;8.00;92.60;;;;;;5015073;28;20064;-47
2021/01/16 01:26:19;;;;;;;5.78;3.75;;;8.00;92.80;;;;;;5024307;28;20083;-47
2021/01/16 01:28:49;;;;;;;6.88;3.80;;;8.10;92.90;;;;;;5013342;28;20415;-46
2021/01/16 01:31:19;;;;;;;6.20;3.78;;;8.10;93.00;;;;;;5004632;28;20042;-48
2021/01/16 01:33:49;;;;;;;6.72;3.65;;;8.10;92.90;;;;;;4996880;28;20073;-45
2021/01/16 01:36:17;;;;;;;9.32;4.15;;;8.20;93.00;;;;;;5024246;28;20076;-48
2021/01/16 01:38:44;;;;;;;7.82;4.43;;;8.20;93.20;;;;;;4988680;28;20169;-48
2021/01/16 01:41:11;;;;;;;5.50;3.78;;;8.20;93.00;;;;;;5024251;28;20381;-47
2021/01/16 01:43:41;;;;;;;5.65;3.80;;;8.20;93.20;;;;;;4997755;28;20061;-48
2021/01/16 01:46:08;;;;;;;7.93;4.10;;;8.30;93.20;;;;;;5004736;28;20420;-47
2021/01/16 01:48:35;;;;;;;7.00;3.92;;;8.30;93.20;;;;;;5000933;28;20804;-46
2021/01/16 01:51:02;;;;;;;5.22;4.45;;;8.30;93.30;;;;;;5032768;28;20060;-47
2021/01/16 01:53:30;;;;;;;6.95;4.22;;;8.30;93.40;;;;;;5031223;28;20107;-45
2021/01/16 01:56:01;;;;;;;5.50;3.92;;;8.30;93.50;;;;;;5029709;28;20060;-52
2021/01/16 01:58:34;;;;;;;6.35;3.95;;;8.30;93.40;;;;;;5032377;28;20053;-51
2021/01/16 02:01:01;;;;;;;6.22;4.53;;;8.30;93.40;;;;;;5031336;28;20120;-50
2021/01/16 02:03:31;;;;;;;6.75;4.10;;;8.30;93.40;;;;;;5031103;28;20484;-46
2021/01/16 02:05:58;;;;;;;6.65;3.70;;;8.30;93.70;;;;;;5029489;28;20060;-49
2021/01/16 02:08:25;;;;;;;7.80;4.07;;;8.30;93.70;;;;;;5032410;28;20499;-47
2021/01/16 02:10:52;;;;;;;7.72;3.63;;;8.30;93.50;;;;;;5031227;28;20050;-49
2021/01/16 02:13:19;;;;;;;9.70;4.30;;;8.30;93.70;;;;;;5031136;28;20045;-48
2021/01/16 02:16:31;;;;;;;6.35;3.50;;;8.30;93.80;;;;;;5016363;28;20053;-47
2021/01/16 02:19:01;;;;;;;6.53;3.72;;;8.30;93.80;;;;;;5003020;28;20054;-46
2021/01/16 02:21:35;;;;;;;7.00;4.50;;;8.30;93.70;;;;;;5018040;28;20064;-47
2021/01/16 02:24:11;;;;;;;10.38;4.22;;;8.30;93.50;;;;;;5018768;28;20049;-48
2021/01/16 02:27:03;;;;;;;6.18;3.53;;;8.30;93.40;;;;;;5018626;28;20049;-48
2021/01/16 02:29:35;;;;;;;5.80;3.83;;;8.30;93.60;;;;;;5034502;28;20053;-46
2021/01/16 02:32:07;;;;;;;5.15;3.50;;;8.20;93.60;;;;;;5034902;28;20407;-47
2021/01/16 02:34:39;;;;;;;5.63;3.33;;;8.20;93.50;;;;;;5017942;28;20069;-51
2021/01/16 02:37:36;;;;;;;5.47;3.03;;;8.20;93.60;;;;;;5035003;28;20053;-47
2021/01/16 02:40:10;;;;;;;6.05;3.75;;;8.20;93.90;;;;;;5035429;28;20136;-49
2021/01/16 02:43:01;;;;;;;6.75;3.63;;;8.10;93.90;;;;;;5034734;28;20077;-45
2021/01/16 02:46:11;;;;;;;6.28;3.58;;;8.10;93.80;;;;;;5016924;28;20041;-48
2021/01/16 02:49:00;;;;;;;5.45;3.40;;;8.10;93.90;;;;;;5035245;28;20553;-45
2021/01/16 02:51:37;;;;;;;5.57;3.53;;;8.10;93.90;;;;;;5032320;28;20088;-50
2021/01/16 02:54:06;;;;;;;10.30;3.80;;;8.10;94.00;;;;;;5017778;28;20037;-46
2021/01/16 02:56:35;;;;;;;5.57;3.47;;;8.10;94.10;;;;;;5018184;28;20055;-48
2021/01/16 02:59:05;;;;;;;4.13;2.95;;;8.10;94.00;;;;;;5033518;28;20045;-46
2021/01/16 03:01:35;;;;;;;5.18;3.25;;;8.10;94.00;;;;;;5018025;28;20042;-47
2021/01/16 03:04:03;;;;;;;4.38;3.17;;;8.10;94.00;;;;;;5035253;28;20053;-46
2021/01/16 03:06:33;;;;;;;4.78;3.42;;;8.10;94.00;;;;;;5034058;28;20057;-48
2021/01/16 03:09:03;;;;;;;5.47;2.75;;;8.20;93.70;;;;;;5035041;28;20053;-46
2021/01/16 03:11:33;;;;;;;5.93;4.53;;;8.20;93.60;;;;;;5017934;28;20049;-47
2021/01/16 03:14:05;;;;;;;4.95;3.35;;;8.20;93.40;;;;;;5017761;28;20091;-46
2021/01/16 03:16:39;;;;;;;6.10;3.42;;;8.20;93.40;;;;;;5017441;28;20136;-50
2021/01/16 03:19:09;;;;;;;7.47;3.85;;;8.20;93.40;;;;;;5033607;28;20068;-54
2021/01/16 03:21:45;;;;;;;7.85;3.25;;;8.10;93.20;;;;;;5034272;28;20054;-51
2021/01/16 03:24:12;;;;;;;5.45;4.50;;;8.10;93.20;;;;;;5033849;28;20399;-51
2021/01/16 03:26:40;;;;;;;6.20;3.75;;;8.10;93.30;;;;;;5016401;28;20136;-46
2021/01/16 03:29:11;;;;;;;6.15;3.33;;;8.00;93.30;;;;;;5017832;28;20053;-50
2021/01/16 03:31:40;;;;;;;6.10;3.47;;;8.00;93.50;;;;;;5033835;28;20411;-48
2021/01/16 03:34:12;;;;;;;5.10;3.85;;;8.00;93.60;;;;;;5034875;28;20052;-47
2021/01/16 03:36:40;;;;;;;4.72;3.20;;;8.00;93.80;;;;;;5033646;28;20446;-46
2021/01/16 03:39:08;;;;;;;5.10;2.95;;;8.00;93.80;;;;;;5016911;28;20153;-48
2021/01/16 03:41:35;;;;;;;19.42;3.83;;;8.00;93.80;;;;;;5017512;28;20099;-47
2021/01/16 03:44:07;;;;;;;6.75;3.03;;;8.00;93.80;;;;;;5033225;28;20045;-46
2021/01/16 03:46:44;;;;;;;6.70;4.22;;;8.00;93.50;;;;;;5033410;28;20042;-46
2021/01/16 03:49:13;;;;;;;7.75;3.90;;;8.00;93.40;;;;;;5033680;28;20132;-47
2021/01/16 03:51:40;;;;;;;4.88;3.33;;;8.00;93.20;;;;;;5034541;28;20488;-46
2021/01/16 03:54:08;;;;;;;5.00;3.47;;;8.10;93.10;;;;;;5033002;28;20539;-46
2021/01/16 03:56:36;;;;;;;5.95;3.22;;;8.10;93.20;;;;;;5033715;28;20057;-46
2021/01/16 03:59:07;;;;;;;7.90;3.70;;;8.10;93.00;;;;;;5016432;28;20088;-47
2021/01/16 04:01:36;;;;;;;4.63;3.05;;;8.10;93.00;;;;;;5013511;28;20396;-47
2021/01/16 04:04:05;;;;;;;3.75;2.85;;;8.10;92.90;;;;;;4986296;28;20488;-47
2021/01/16 04:06:32;;;;;;;4.78;2.65;;;8.10;93.00;;;;;;5032968;28;20046;-46
2021/01/16 04:08:59;;;;;;;3.97;3.00;;;8.10;92.80;;;;;;5032757;28;20046;-48
2021/01/16 04:11:26;;;;;;;8.60;2.55;;;8.10;92.50;;;;;;5033016;28;20053;-47
2021/01/16 04:13:54;;;;;;;4.70;2.58;;;8.10;92.00;;;;;;5032801;28;20479;-46
2021/01/16 04:16:25;;;;;;;6.72;2.50;;;8.10;91.50;;;;;;5034127;28;20049;-46
2021/01/16 04:18:53;;;;;;;3.20;2.15;;;8.10;91.10;;;;;;5016455;28;20391;-48
2021/01/16 04:21:21;;;;;;;3.28;2.00;;;8.10;90.80;;;;;;5032890;28;20073;-46
2021/01/16 04:23:50;;;;;;;5.80;2.05;;;8.10;90.60;;;;;;5032565;28;20395;-46
2021/01/16 04:26:18;;;;;;;4.00;2.38;;;8.10;90.50;;;;;;5032867;28;20183;-46
2021/01/16 04:28:46;;;;;;;5.68;2.50;;;8.10;90.20;;;;;;5032132;28;20056;-46
2021/01/16 04:31:13;;;;;;;3.88;2.47;;;8.10;90.10;;;;;;5028363;28;20136;-45
2021/01/16 04:33:40;;;;;;;3.70;1.63;;;8.10;89.90;;;;;;5015772;28;20484;-46
2021/01/16 04:36:07;;;;;;;3.35;2.00;;;8.00;89.80;;;;;;5033848;28;20381;-48
2021/01/16 04:38:37;;;;;;;5.53;2.10;;;8.00;89.40;;;;;;5031700;28;20865;-45
2021/01/16 04:41:04;;;;;;;6.47;2.50;;;8.00;89.30;;;;;;5032663;28;20069;-47
2021/01/16 04:43:35;;;;;;;3.20;2.30;;;7.90;88.70;;;;;;5032190;28;20132;-47
2021/01/16 04:46:06;;;;;;;3.38;2.15;;;7.90;89.40;;;;;;5033515;28;20380;-47
2021/01/16 04:48:37;;;;;;;4.25;2.65;;;7.90;89.60;;;;;;5015223;28;20500;-47
2021/01/16 04:51:06;;;;;;;4.25;1.70;;;7.90;89.30;;;;;;5032680;28;20077;-47
2021/01/16 04:53:37;;;;;;;4.03;2.42;;;7.90;89.50;;;;;;5032101;28;20049;-46
2021/01/16 04:56:06;;;;;;;4.32;2.22;;;7.90;89.30;;;;;;5016182;28;20077;-45
2021/01/16 04:58:38;;;;;;;4.32;2.80;;;7.90;89.10;;;;;;5015391;28;20049;-47
2021/01/16 05:01:11;;;;;;;3.45;2.72;;;7.90;88.80;;;;;;5032397;28;20099;-47
2021/01/16 05:03:44;;;;;;;2.30;1.88;;;8.00;88.90;;;;;;5033228;28;20479;-47
2021/01/16 05:06:12;;;;;;;6.60;2.35;;;7.90;88.60;;;;;;5033474;28;20391;-47
2021/01/16 05:08:46;;;;;;;6.65;1.92;;;7.90;88.30;;;;;;5031758;28;20056;-46
2021/01/16 05:11:24;;;;;;;3.60;1.90;;;7.90;88.00;;;;;;5044609;28;20057;-46
2021/01/16 05:14:19;;;;;;;4.80;2.53;;;7.90;87.60;;;;;;4998357;28;20041;-46
2021/01/16 05:17:02;;;;;;;3.72;2.30;;;8.00;87.30;;;;;;5023770;28;20064;-46
2021/01/16 05:19:32;;;;;;;2.95;1.83;;;8.00;86.60;;;;;;5031970;28;20057;-46
2021/01/16 05:22:03;;;;;;;3.35;2.40;;;8.00;86.60;;;;;;5032002;28;20060;-49
2021/01/16 05:24:30;;;;;;;4.80;1.90;;;8.00;86.40;;;;;;5014946;28;20160;-46
2021/01/16 05:27:05;;;;;;;6.90;2.28;;;8.00;86.10;;;;;;5031813;28;20045;-47
2021/01/16 05:29:36;;;;;;;3.85;2.28;;;8.10;85.90;;;;;;5031637;28;20053;-47
2021/01/16 05:32:20;;;;;;;4.10;2.45;;;8.10;85.90;;;;;;5031887;28;20140;-45
2021/01/16 05:34:50;;;;;;;6.07;2.47;;;8.10;85.60;;;;;;5014924;28;20054;-46
2021/01/16 05:37:19;;;;;;;3.45;2.22;;;8.10;85.00;;;;;;5015761;28;20065;-48
2021/01/16 05:39:49;;;;;;;3.40;1.60;;;8.10;84.90;;;;;;5015182;28;20380;-47
2021/01/16 05:42:18;;;;;;;3.63;1.83;;;8.00;84.80;;;;;;5015376;28;20057;-47
2021/01/16 05:44:45;;;;;;;4.93;2.10;;;8.00;84.20;;;;;;5031263;28;20096;-46
2021/01/16 05:47:15;;;;;;;5.45;2.28;;;8.00;84.30;;;;;;5031377;28;20042;-47
2021/01/16 05:49:47;;;;;;;4.30;2.20;;;7.90;84.40;;;;;;5031514;28;20061;-47
2021/01/16 05:52:18;;;;;;;4.28;1.80;;;7.90;83.70;;;;;;5035674;28;20049;-48
2021/01/16 05:54:51;;;;;;;3.47;2.33;;;7.90;83.70;;;;;;5035089;28;20058;-46
2021/01/16 05:57:21;;;;;;;4.05;2.25;;;7.90;84.10;;;;;;5035489;28;20050;-46
2021/01/16 05:59:59;;;;;;;4.72;2.45;;;7.90;83.90;;;;;;5035288;28;20123;-46
2021/01/16 06:02:31;;;;;;;3.55;2.05;;;7.90;83.70;;;;;;5036488;28;20086;-47
2021/01/16 06:04:59;;;;;;;4.53;2.60;;;7.80;83.20;;;;;;5035931;28;20049;-47
2021/01/16 06:07:37;;;;;;;4.72;2.28;;;7.80;82.70;;;;;;5035803;28;20069;-45
2021/01/16 06:10:12;;;;;;;3.40;1.80;;;7.70;82.60;;;;;;5018897;28;20052;-51
2021/01/16 06:12:44;;;;;;;3.42;2.28;;;7.70;82.20;;;;;;5036551;28;20491;-45
2021/01/16 06:15:16;;;;;;;4.47;2.78;;;7.70;82.50;;;;;;5035944;28;20145;-47
2021/01/16 06:17:46;;;;;;;9.57;4.20;;;7.70;82.50;;;;;;5035268;28;20049;-50
2021/01/16 06:20:23;;;;;;;5.65;3.20;;;7.70;82.90;;;;;;5035383;28;20065;-51
2021/01/16 06:22:51;;;;;;;4.18;2.72;;;7.70;82.60;;;;;;5032990;28;20487;-46
2021/01/16 06:25:23;;;;;;;4.07;2.10;;;7.70;82.50;;;;;;5000612;28;20127;-46
2021/01/16 06:27:51;;;;;;;2.78;2.00;;;7.70;82.30;;;;;;5048811;28;20056;-47
2021/01/16 06:30:22;;;;;;;3.35;2.00;;;7.80;81.90;;;;;;5018764;28;20053;-48
2021/01/16 06:32:53;;;;;;;3.38;2.10;;;7.90;82.20;;;;;;5028381;28;20045;-48
2021/01/16 06:35:27;;;;;;;4.50;2.15;;;7.90;81.30;;;;;;5034601;28;20055;-47
2021/01/16 06:37:54;;;;;;;18.75;3.95;;;8.00;81.70;;;;;;5015366;28;20141;-47
2021/01/16 06:40:32;;;;;;;4.20;2.30;;;8.00;81.10;;;;;;5033482;28;20077;-46
2021/01/16 06:43:15;;;;;;;5.35;2.20;;;8.00;80.60;;;;;;5044669;28;20049;-46
2021/01/16 06:45:45;;;;;;;5.30;2.15;;;7.90;80.50;;;;;;5034798;28;20137;-47
2021/01/16 06:48:14;;;;;;;3.47;2.08;;;8.10;80.20;;;;;;5024638;28;20052;-46
2021/01/16 06:50:41;;;;;;;3.15;1.88;;;8.30;79.20;;;;;;5017370;28;20492;-46
2021/01/16 06:53:26;;;;;;;5.13;2.45;;;8.70;78.20;;;;;;5016168;28;20398;-46
2021/01/16 06:56:09;;;;;;;4.85;2.03;;;9.30;76.90;;;;;;5017523;28;20065;-46
2021/01/16 06:58:42;;;;;;;6.22;2.47;;;10.20;74.20;;;;;;5027857;28;20049;-46
2021/01/16 07:01:14;;;;;;;4.20;1.88;;;10.70;71.80;;;;;;5034877;28;20045;-48
2021/01/16 07:03:46;;;;;;;4.53;2.70;;;11.50;70.60;;;;;;5034438;28;20140;-46
2021/01/16 07:06:14;;;;;;;2.95;1.88;;;12.60;68.20;;;;;;5029598;28;20521;-46
2021/01/16 07:08:42;;;;;;;4.70;2.88;;;13.50;65.60;;;;;;5033744;28;20049;-46
2021/01/16 07:11:12;;;;;;;4.80;2.03;;;13.80;63.10;;;;;;5030646;28;20124;-49
2021/01/16 07:13:42;;;;;;;7.45;2.58;;;13.10;63.20;;;;;;5033100;28;20565;-46
2021/01/16 07:16:11;;;;;;;6.18;2.80;;;13.60;63.50;;;;;;5033506;28;20099;-47
2021/01/16 07:18:41;;;;;;;3.35;2.08;;;13.90;62.40;;;;;;5017009;28;20037;-46
2021/01/16 07:21:12;;;;;;;4.45;2.83;;;13.90;60.70;;;;;;5035543;28;20408;-46
2021/01/16 07:23:41;;;;;;;5.97;2.67;;;13.30;61.40;;;;;;5033591;28;20053;-47
2021/01/16 07:26:10;;;;;;;3.90;2.80;;;12.60;62.80;;;;;;5033513;28;20506;-46
2021/01/16 07:28:40;;;;;;;3.85;2.80;;;11.90;64.60;;;;;;5034381;28;20064;-46
2021/01/16 07:31:07;;;;;;;3.95;2.60;;;11.20;66.00;;;;;;5034942;28;20136;-46
2021/01/16 07:33:39;;;;;;;5.53;3.38;;;10.80;67.20;;;;;;5033645;28;20645;-47
2021/01/16 07:36:15;;;;;;;5.63;2.38;;;10.90;67.40;;;;;;5017397;28;20471;-46
2021/01/16 07:38:49;;;;;;;4.63;2.90;;;11.20;66.30;;;;;;5034762;28;20048;-47
2021/01/16 07:41:28;;;;;;;5.57;2.40;;;11.00;66.40;;;;;;5029945;28;20045;-46
2021/01/16 07:44:10;;;;;;;4.57;2.00;;;10.90;67.40;;;;;;5017051;28;20073;-45
2021/01/16 07:46:44;;;;;;;10.23;2.60;;;11.50;66.30;;;;;;5016878;28;20049;-46
2021/01/16 07:49:19;;;;;;;5.55;2.67;;;12.10;65.20;;;;;;5016623;28;20065;-46
2021/01/16 07:51:54;;;;;;;6.65;2.85;;;13.00;64.00;;;;;;5021742;28;20137;-47
2021/01/16 07:54:33;;;;;;;11.82;3.88;;;13.60;62.10;;;;;;5038687;28;20146;-46
2021/01/16 07:57:12;;;;;;;4.38;2.38;;;13.70;60.90;;;;;;5033493;28;20045;-46
2021/01/16 07:59:51;;;;;;;5.28;2.30;;;13.80;60.40;;;;;;5032864;28;20049;-45
2021/01/16 08:02:28;;;;;;;6.80;2.63;;;13.10;60.60;;;;;;5032402;28;20140;-47
2021/01/16 08:05:19;;;;;;;3.35;2.13;;;12.50;62.10;;;;;;5032459;28;20041;-46
2021/01/16 08:08:10;;;;;;;10.88;4.85;;;12.50;62.90;;;;;;5032566;28;20057;-47
2021/01/16 08:10:41;;;;;;;6.15;2.50;;;12.80;62.60;;;;;;5031906;28;20060;-46
2021/01/16 08:13:18;;;;;;;5.28;2.80;;;12.40;62.90;;;;;;5015728;28;20046;-48
2021/01/16 08:15:47;;;;;;;4.20;2.40;;;12.60;62.70;;;;;;5015502;28;20107;-46
2021/01/16 08:18:23;;;;;;;4.28;2.22;;;12.90;61.80;;;;;;5033186;28;20045;-47
2021/01/16 08:20:57;;;;;;;8.95;2.85;;;13.00;61.00;;;;;;5032412;28;20403;-47
2021/01/16 08:23:25;;;;;;;4.65;2.75;;;13.30;60.80;;;;;;5037718;28;20046;-46
2021/01/16 08:26:06;;;;;;;5.57;2.20;;;13.60;60.20;;;;;;5033509;28;20045;-46
2021/01/16 08:28:37;;;;;;;3.80;2.15;;;13.50;59.30;;;;;;5033394;28;20057;-45
2021/01/16 08:31:05;;;;;;;5.10;2.30;;;13.40;60.00;;;;;;5033476;28;20756;-46
2021/01/16 08:33:35;;;;;;;5.60;3.33;;;13.10;60.60;;;;;;5016318;28;20057;-46
2021/01/16 08:36:29;;;;;;;6.38;3.97;;;12.50;61.60;;;;;;5016556;28;20385;-47
2021/01/16 08:39:27;;;;;;;5.70;3.40;;;11.70;62.90;;;;;;5032148;28;20053;-46
2021/01/16 08:42:09;;;;;;;7.03;4.03;;;11.30;63.40;;;;;;5024115;28;20132;-47
2021/01/16 08:44:52;;;;;;;5.22;3.15;;;11.20;63.90;;;;;;5045068;28;20069;-48
2021/01/16 08:47:28;;;;;;;5.05;2.80;;;11.20;64.50;;;;;;5013865;28;20049;-50
2021/01/16 08:50:14;;;;;;;6.55;3.08;;;11.10;64.00;;;;;;5013615;28;20092;-46
2021/01/16 08:52:43;;;;;;;5.65;2.35;;;11.00;64.20;;;;;;5031565;28;20045;-48
2021/01/16 08:55:10;;;;;;;4.90;2.83;;;10.70;64.50;;;;;;5044040;28;20049;-48
2021/01/16 08:57:39;;;;;;;5.25;3.50;;;10.80;63.80;;;;;;5031676;28;20053;-46
2021/01/16 09:00:30;;;;;;;4.88;2.13;;;11.00;63.30;;;;;;5032176;28;20076;-47
2021/01/16 09:03:07;;;;;;;5.40;2.30;;;11.00;62.40;;;;;;5030645;28;20144;-47
2021/01/16 09:05:37;;;;;;;5.07;2.92;;;11.10;61.80;;;;;;5031154;28;20045;-46
2021/01/16 09:08:28;;;;;;;3.65;2.72;;;11.30;61.90;;;;;;5031747;28;20053;-45
2021/01/16 09:11:23;;;;;;;6.55;2.20;;;11.40;60.30;;;;;;5014650;28;20514;-46
2021/01/16 09:13:52;;;;;;;6.32;2.60;;;11.40;60.00;;;;;;5028687;28;20384;-47
2021/01/16 09:16:29;;;;;;;3.97;2.30;;;11.60;61.10;;;;;;5015051;28;20141;-46
2021/01/16 09:18:57;;;;;;;4.10;2.20;;;11.80;61.30;;;;;;5027811;28;20049;-47
2021/01/16 09:21:27;;;;;;;5.60;2.65;;;11.80;60.20;;;;;;5029285;28;20122;-46
2021/01/16 09:23:56;;;;;;;5.28;2.58;;;11.90;60.20;;;;;;5014675;28;20049;-47
2021/01/16 09:26:27;;;;;;;4.22;2.50;;;12.00;60.20;;;;;;5027811;28;20424;-48
2021/01/16 09:29:04;;;;;;;4.65;2.58;;;12.10;60.30;;;;;;5013798;28;20124;-47
2021/01/16 09:31:41;;;;;;;6.60;2.65;;;11.50;59.40;;;;;;5031009;28;20132;-46
2021/01/16 09:34:20;;;;;;;6.28;2.75;;;11.30;60.00;;;;;;5015280;28;20050;-47
2021/01/16 09:36:56;;;;;;;6.10;2.80;;;11.10;60.30;;;;;;5007227;28;20050;-47
2021/01/16 09:39:31;;;;;;;7.85;3.53;;;11.10;60.20;;;;;;5032459;28;20046;-48
2021/01/16 09:42:18;;;;;;;4.55;2.65;;;11.40;60.40;;;;;;5033074;28;20046;-46
2021/01/16 09:44:55;;;;;;;5.00;2.22;;;11.80;60.10;;;;;;5029494;28;20076;-46
2021/01/16 09:47:26;;;;;;;4.53;2.50;;;12.00;59.40;;;;;;5015222;28;20045;-46
2021/01/16 09:50:02;;;;;;;8.02;2.78;;;12.20;59.30;;;;;;5015100;28;20049;-45
2021/01/16 09:52:33;;;;;;;5.38;3.28;;;12.20;58.40;;;;;;5015575;28;20119;-45
2021/01/16 09:55:00;;;;;;;3.60;2.58;;;12.00;57.70;;;;;;5031503;28;20081;-45
2021/01/16 09:57:38;;;;;;;6.85;3.10;;;12.00;58.40;;;;;;5031562;28;20053;-46
2021/01/16 10:00:26;;;;;;;7.20;4.50;;;12.20;58.30;;;;;;5031255;28;20155;-47
2021/01/16 10:03:16;;;;;;;5.00;2.60;;;12.30;58.20;;;;;;5013329;28;20057;-46
2021/01/16 10:05:44;;;;;;;5.13;2.63;;;12.20;57.10;;;;;;5014937;28;20095;-47
2021/01/16 10:08:28;;;;;;;6.40;3.20;;;12.20;57.50;;;;;;5014266;28;20049;-47
2021/01/16 10:11:04;;;;;;;4.28;2.83;;;12.20;58.50;;;;;;5029729;28;20411;-46
2021/01/16 10:13:35;;;;;;;3.97;3.03;;;12.10;57.70;;;;;;5014695;28;20455;-46
2021/01/16 10:16:13;;;;;;;4.40;2.45;;;12.10;57.40;;;;;;5014989;28;20045;-46
2021/01/16 10:18:43;;;;;;;4.03;2.80;;;12.20;56.60;;;;;;5032218;28;20136;-46
2021/01/16 10:21:20;;;;;;;4.80;2.72;;;12.30;57.30;;;;;;5011633;28;20526;-47
2021/01/16 10:23:47;;;;;;;4.00;2.25;;;12.40;57.60;;;;;;5032229;28;20050;-46
2021/01/16 10:26:17;;;;;;;6.15;2.80;;;12.40;57.10;;;;;;5031385;28;20136;-46
2021/01/16 10:28:53;;;;;;;6.50;4.57;;;12.30;57.00;;;;;;5014062;28;20049;-47
2021/01/16 10:31:26;;;;;;;8.60;3.88;;;12.30;57.40;;;;;;5044699;28;20050;-46
2021/01/16 10:34:14;;;;;;;4.65;2.88;;;12.20;56.90;;;;;;5031979;28;20053;-46
2021/01/16 10:36:45;;;;;;;7.25;3.72;;;12.20;57.30;;;;;;5033613;28;20119;-46
2021/01/16 10:39:17;;;;;;;7.50;4.00;;;12.10;57.20;;;;;;5034059;28;20049;-46
2021/01/16 10:41:45;;;;;;;6.07;2.83;;;12.30;57.40;;;;;;5034549;28;20140;-46
2021/01/16 10:44:20;;;;;;;6.18;3.20;;;12.10;56.90;;;;;;5035288;28;20136;-47
2021/01/16 10:46:51;;;;;;;9.07;4.10;;;12.10;56.80;;;;;;5026044;28;20107;-46
2021/01/16 10:49:27;;;;;;;4.90;3.35;;;12.10;57.00;;;;;;5035099;28;20054;-47
2021/01/16 10:52:04;;;;;;;6.13;3.28;;;12.30;57.30;;;;;;5034850;28;20404;-46
2021/01/16 10:54:34;;;;;;;4.20;2.65;;;12.20;57.20;;;;;;5034155;28;20060;-46
2021/01/16 10:57:09;;;;;;;4.70;3.30;;;12.20;56.50;;;;;;5034769;28;20056;-46
2021/01/16 10:59:54;;;;;;;5.80;3.42;;;12.30;56.10;;;;;;5034095;28;20080;-46
2021/01/16 11:02:36;;;;;;;5.00;3.58;;;12.20;56.10;;;;;;5034704;28;20048;-45
2021/01/16 11:05:16;;;;;;;6.70;4.25;;;12.30;56.90;;;;;;5035480;28;20120;-47
2021/01/16 11:07:44;;;;;;;6.22;4.05;;;12.30;57.10;;;;;;5034658;28;20124;-47
2021/01/16 11:10:29;;;;;;;7.85;3.75;;;12.40;57.10;;;;;;5034029;28;20060;-47
2021/01/16 11:13:25;;;;;;;5.93;3.03;;;12.60;57.30;;;;;;5030450;28;20090;-48
2021/01/16 11:16:13;;;;;;;4.60;2.45;;;12.40;57.40;;;;;;5034130;28;20132;-47
2021/01/16 11:18:44;;;;;;;5.10;2.97;;;12.20;57.60;;;;;;5035021;28;20115;-46
2021/01/16 11:21:36;;;;;;;5.70;3.25;;;12.20;57.80;;;;;;5034022;28;20095;-46
2021/01/16 11:24:35;;;;;;;4.68;3.30;;;12.10;58.20;;;;;;5017606;28;20487;-47
2021/01/16 11:27:09;;;;;;;4.72;3.10;;;12.20;58.10;;;;;;4995441;28;20041;-47
2021/01/16 11:29:43;;;;;;;5.35;3.47;;;12.20;58.40;;;;;;5050311;28;20476;-46
2021/01/16 11:32:15;;;;;;;9.27;4.68;;;12.20;59.00;;;;;;5034167;28;20057;-46
2021/01/16 11:35:10;;;;;;;8.60;5.07;;;12.00;58.00;;;;;;5016963;28;20064;-46
2021/01/16 11:37:51;;;;;;;15.20;4.55;;;11.70;58.90;;;;;;5017948;28;20076;-46
2021/01/16 11:40:36;;;;;;;12.30;4.80;;;11.40;58.70;;;;;;5016951;28;20095;-45
2021/01/16 11:43:15;;;;;;;4.90;3.10;;;11.00;59.20;;;;;;5024660;28;20515;-46
2021/01/16 11:45:50;;;;;;;5.93;3.08;;;11.00;59.90;;;;;;5030621;28;20041;-46
2021/01/16 11:48:18;;;;;;;7.68;3.55;;;11.00;59.10;;;;;;5029852;28;20056;-48
2021/01/16 11:50:50;;;;;;;10.40;3.95;;;11.10;61.20;;;;;;5019255;28;20046;-46
2021/01/16 11:53:17;;;;;;;6.72;3.58;;;11.30;60.00;;;;;;4990434;28;20056;-46
2021/01/16 11:55:45;;;;;;;6.78;3.70;;;11.50;58.90;;;;;;4983947;28;20050;-46
2021/01/16 11:58:15;;;;;;;15.18;5.60;;;11.60;58.40;;;;;;5005658;28;20056;-48
2021/01/16 12:00:44;;;;;;;16.00;4.97;;;11.80;58.70;;;;;;5002199;28;20076;-50
2021/01/16 12:03:24;;;;;;;9.35;4.05;;;11.70;59.30;;;;;;5007310;28;20133;-49
2021/01/16 12:05:52;;;;;;;4.78;3.00;;;11.70;58.00;;;;;;5028512;28;20503;-49
2021/01/16 12:08:28;;;;;;;4.97;3.20;;;11.70;58.20;;;;;;5006048;28;20087;-55
2021/01/16 12:10:56;;;;;;;6.47;4.03;;;11.80;58.80;;;;;;5008656;28;20056;-47
2021/01/16 12:13:24;;;;;;;11.35;4.28;;;11.90;58.10;;;;;;5018768;28;20077;-47
2021/01/16 12:15:57;;;;;;;5.43;3.83;;;12.00;58.60;;;;;;5026182;28;20115;-46
2021/01/16 12:18:27;;;;;;;5.90;2.92;;;12.10;57.40;;;;;;4986742;28;20057;-58
2021/01/16 12:21:02;;;;;;;4.32;2.30;;;12.00;58.40;;;;;;4990843;28;20049;-46
2021/01/16 12:23:40;;;;;;;4.97;3.00;;;12.00;60.10;;;;;;5015182;28;20057;-48
2021/01/16 12:26:15;;;;;;;7.72;3.17;;;11.90;58.30;;;;;;5009426;28;20042;-47
2021/01/16 12:28:51;;;;;;;8.23;3.72;;;12.00;58.50;;;;;;5015695;28;20077;-46
2021/01/16 12:31:20;;;;;;;7.00;3.08;;;11.80;58.50;;;;;;5012051;28;20056;-47
2021/01/16 12:33:52;;;;;;;5.88;2.92;;;11.80;58.70;;;;;;4978052;28;20395;-49
2021/01/16 12:36:20;;;;;;;7.75;3.15;;;11.70;59.00;;;;;;4991146;28;20048;-48
2021/01/16 12:38:49;;;;;;;4.38;3.05;;;11.60;58.90;;;;;;5024669;28;20041;-46
2021/01/16 12:41:25;;;;;;;6.20;4.15;;;11.40;58.80;;;;;;4990568;28;20104;-46
2021/01/16 12:43:54;;;;;;;3.83;2.38;;;11.40;59.20;;;;;;5002273;28;20516;-48
2021/01/16 12:46:27;;;;;;;4.55;3.03;;;11.20;59.80;;;;;;4994936;28;20515;-47
2021/01/16 12:48:54;;;;;;;3.33;2.08;;;11.30;60.20;;;;;;4991413;28;20487;-47
2021/01/16 12:51:25;;;;;;;4.30;2.75;;;11.20;59.80;;;;;;5014675;28;20143;-46
2021/01/16 12:53:55;;;;;;;5.20;3.13;;;11.20;60.20;;;;;;5030581;28;20045;-47
2021/01/16 12:56:22;;;;;;;4.15;3.03;;;11.20;61.10;;;;;;5015241;28;20056;-47
2021/01/16 12:58:51;;;;;;;6.40;3.30;;;11.10;62.10;;;;;;5014601;28;20045;-49
2021/01/16 13:01:24;;;;;;;7.43;3.53;;;10.90;62.40;;;;;;5031181;28;20076;-49
2021/01/16 13:03:54;;;;;;;16.23;5.90;;;10.70;62.80;;;;;;5031614;28;20056;-48
2021/01/16 13:06:21;;;;;;;7.60;3.85;;;10.50;66.00;;;;;;5031701;28;20618;-47
2021/01/16 13:08:49;;;;;;;7.25;3.90;;;10.30;66.90;;;;;;5031185;28;20127;-52
2021/01/16 13:11:23;;;;;;;6.22;4.18;;;10.30;81.40;;;;;;5031365;28;20065;-48
2021/01/16 13:13:58;;;;;;;7.43;3.10;;;10.00;73.30;;;;;;5031087;28;20055;-48
2021/01/16 13:16:29;;;;;;;8.18;4.80;;;9.80;76.40;;;;;;5031965;28;20099;-46
2021/01/16 13:19:01;;;;;;;5.80;3.22;;;9.70;77.90;;;;;;5032448;28;20053;-47
2021/01/16 13:21:32;;;;;;;5.05;3.40;;;9.70;79.30;;;;;;5032132;28;20072;-45
2021/01/16 13:23:59;;;;;;;4.88;2.70;;;9.70;80.10;;;;;;5031584;28;20136;-47